Corona, SD (57227)

2:20 PM CDT on September 26, 2016 (GMT -0500)
Linden Beach | | Change Station

Elev 974 ft 45.41 °N, 96.65 °W | Updated 16 seconds ago

Clear
Clear
64.6 °F
Feels Like 64.6 °F
N
20.8
Wind Variable Wind from WNW
Gusts 24.8 mph

Today
High -- | Low -- °F
--% Chance of Precip.
Yesterday
High -- | Low -- °F
Precip. -- in
Pressure 30.02 in
Visibility 10.0 miles
Clouds Clear
Dew Point 43 °F
Humidity 45%
Rainfall 0.00 in
Snow Depth Not available.
7:19 AM 7:15 PM
Waning Crescent, 17% visible
METAR KETH 261755Z AUTO 30020G29KT 10SM CLR 19/03 A3002 RMK AO2
Pressure 30.02 in
Visibility 10.0 miles
Clouds Clear
Dew Point 43 °F
Humidity 45%
Rainfall 0.00 in
Snow Depth Not available.
7:19 AM 7:15 PM
Waning Crescent, 17% visible
METAR KETH 261755Z AUTO 30020G29KT 10SM CLR 19/03 A3002 RMK AO2

10-Day Weather Forecast

Almanac

Astronomy

Sep. 26, 2016 Rise Set
Actual Time
Civil Twilight
Nautical Twilight
Astronomical Twilight
Moon
Length of Visible Light
Length of Day
Tomorrow will be .
, % of the Moon is Illuminated

Today's Extremes

State Highs State Lows

Community

WunderPhotos

Upload Photos

1,941,952 photos uploaded!

WunderBlog® & News

Nearby

Air Quality

  Air Quality AQ Index Pollutant
Not available.

Snow Depth

Station Depth Elevation

Earthquake Activity

City Distance Mag. Time & Date
Minimum magnitude displayed is 2.5.

Coastal Water Temperatures

Place Temperature

Stations

Nearby Weather Stations

Station Location Temp. Windchill Dew Point Humidity Wind Precip. Elev Updated Type
                   

Watches & Warnings

There are currently no watches in effect.